Flight Track Log - Related Links

Times and Time Zones

All times are in EST time to prevent confusion due to time zone crossing. See the SWA3535 flight status page for this flight to view local times or setup timezone preferences in your user account.

Time Position Orientation Groundspeed Altitude Reporting Facility
EST Latitude Longitude Course Direction KTS MPH feet Rate Location/Type
Sat 05:27:34 PM 42.7250 -73.8039 171° South 124 143 2,200  Level Boston Center
Sat 05:28:35 PM 42.7083 -73.8594 248° West 183 211 4,900 3,050 Climbing Boston Center
Sat 05:29:34 PM 42.7053 -73.9425 267° West 204 235 8,300 3,463 Climbing Boston Center
Sat 05:30:38 PM 42.7044 -74.0300 269° West 228 262 12,000 3,120 Climbing Boston Center
Sat 05:31:39 PM 42.6608 -74.0978 229° Southwest 263 303 14,800 2,607 Climbing Boston Center
Sat 05:32:40 PM 42.5867 -74.1553 210° Southwest 303 349 17,300 2,182 Climbing Boston Center
Sat 05:33:40 PM 42.5067 -74.1675 186° South 360 414 19,200 1,983 Climbing Boston Center
Sat 05:34:41 PM 42.4011 -74.1225 163° South 401 461 21,300 2,262 Climbing Boston Center
Sat 05:35:42 PM 42.2661 -74.0667 163° South 424 488 23,800 1,984 Climbing Boston Center
Sat 05:36:45 PM 42.1458 -74.0192 164° South 448 516 25,400 2,000 Climbing Boston Center
Sat 05:37:45 PM 42.0244 -74.0156 179° South 436 502 27,900 2,430 Climbing Boston Center
Sat 05:38:46 PM 41.9064 -74.0211 182° South 426 490 30,300 2,164 Climbing Boston Center
Sat 05:39:47 PM 41.7778 -74.0283 182° South 420 483 32,300 1,967 Climbing Boston Center
Sat 05:40:48 PM 41.6642 -74.0339 182° South 412 474 34,300 1,785 Climbing Boston Center
Sat 05:41:48 PM 41.5500 -74.0411 183° South 412 474 35,900 1,385 Climbing Boston Center
Sat 05:42:19 PM 41.5017 -74.0425 181° South 414 476 36,400 989 Climbing New York Center
Sat 05:43:19 PM 41.3964 -74.0758 193° South 402 463 37,400 800 Climbing New York Center
Sat 05:44:19 PM 41.2950 -74.1289 201° Southwest 387 445 38,000 300 Climbing New York Center
Sat 05:45:19 PM 41.1894 -74.1789 200° South 392 451 38,000  Level New York Center
Sat 05:46:19 PM 41.0842 -74.2231 198° South 397 457 38,000  Level New York Center
Sat 05:47:19 PM 40.9825 -74.2756 201° Southwest 397 457 38,000  Level New York Center
Sat 05:48:19 PM 40.8808 -74.3281 201° Southwest 397 457 38,000  Level New York Center
Sat 05:49:19 PM 40.7775 -74.3747 199° South 397 457 38,000  Level New York Center
Sat 05:50:19 PM 40.6781 -74.4242 201° Southwest 397 457 38,000  Level New York Center
Sat 05:51:19 PM 40.5764 -74.4733 200° South 397 457 38,000  Level New York Center
Sat 05:52:19 PM 40.4750 -74.5225 200° South 397 457 38,000  Level New York Center
Sat 05:54:03 PM 40.2967 -74.6069 200° South 386 444 38,000  Level Boston Center
Sat 05:54:44 PM 40.2325 -74.6378 200° South 389 448 38,000  Level Washington Center
Sat 05:55:46 PM 40.1331 -74.6878 201° Southwest 389 448 38,000  Level Washington Center
Sat 05:56:46 PM 40.0333 -74.7325 199° South 389 448 38,000  Level Washington Center
Sat 05:57:46 PM 39.9233 -74.7881 201° Southwest 389 448 38,000  Level Washington Center
Sat 05:58:44 PM 39.8258 -74.8322 199° South 389 448 38,000  Level Washington Center
Sat 05:59:45 PM 39.7261 -74.8792 200° South 389 448 38,000  Level Washington Center
Sat 06:00:45 PM 39.6283 -74.9233 199° South 394 453 38,000  Level Washington Center
Sat 06:01:45 PM 39.5203 -74.9756 200° South 394 453 38,000  Level Washington Center
Sat 06:02:46 PM 39.4164 -75.0219 199° South 394 453 38,000  Level Washington Center
Sat 06:03:44 PM 39.3206 -75.0819 206° Southwest 389 448 38,000  Level Washington Center
Sat 06:04:45 PM 39.2231 -75.1389 204° Southwest 389 448 38,000  Level Washington Center
Sat 06:05:46 PM 39.1294 -75.1983 206° Southwest 389 448 38,000  Level Washington Center
Sat 06:06:44 PM 39.0358 -75.2550 205° Southwest 379 436 38,000  Level Washington Center
Sat 06:07:45 PM 38.9400 -75.3114 205° Southwest 379 436 38,000  Level Washington Center
Sat 06:08:46 PM 38.8483 -75.3706 207° Southwest 379 436 38,000  Level Washington Center
Sat 06:09:46 PM 38.7547 -75.4239 204° Southwest 379 436 38,000  Level Washington Center
Sat 06:10:44 PM 38.6631 -75.4775 205° Southwest 379 436 38,000  Level Washington Center
Sat 06:11:44 PM 38.5692 -75.5333 205° Southwest 374 430 38,000  Level Washington Center
Sat 06:12:46 PM 38.4797 -75.5864 205° Southwest 374 430 38,000  Level Washington Center
Sat 06:13:44 PM 38.3858 -75.6394 204° Southwest 374 430 38,000  Level Washington Center
Sat 06:14:44 PM 38.3025 -75.6844 203° Southwest 368 423 38,000  Level Washington Center
Sat 06:15:45 PM 38.2086 -75.7397 205° Southwest 368 423 38,000  Level Washington Center
Sat 06:16:46 PM 38.1167 -75.7950 205° Southwest 368 423 38,000  Level Washington Center
Sat 06:17:44 PM 38.0228 -75.8475 204° Southwest 368 423 38,000  Level Washington Center
Sat 06:18:45 PM 37.9286 -75.9025 205° Southwest 373 429 38,000  Level Washington Center
Sat 06:19:45 PM 37.8347 -75.9572 205° Southwest 378 435 38,000  Level Washington Center
Sat 06:20:44 PM 37.7428 -76.0197 208° Southwest 378 435 38,000  Level Washington Center
Sat 06:21:45 PM 37.6486 -76.0719 204° Southwest 378 435 38,000  Level Washington Center
Sat 06:22:46 PM 37.5525 -76.1261 204° Southwest 378 435 38,000  Level Washington Center
Sat 06:23:46 PM 37.4586 -76.1725 201° Southwest 378 435 38,000  Level Washington Center
Sat 06:24:44 PM 37.3622 -76.2267 204° Southwest 378 435 38,000  Level Washington Center
Sat 06:25:45 PM 37.2681 -76.2808 205° Southwest 378 435 38,000  Level Washington Center
Sat 06:26:46 PM 37.1739 -76.3347 205° Southwest 378 435 38,000  Level Washington Center
Sat 06:27:44 PM 37.0797 -76.3911 206° Southwest 378 435 38,000  Level Washington Center
Sat 06:28:45 PM 36.9833 -76.4422 203° Southwest 378 435 38,000  Level Washington Center
Sat 06:29:45 PM 36.8892 -76.4956 204° Southwest 378 435 38,000  Level Washington Center
Sat 06:30:46 PM 36.7969 -76.5464 204° Southwest 378 435 38,000  Level Washington Center
Sat 06:31:46 PM 36.7047 -76.5997 205° Southwest 378 435 38,000  Level Washington Center
Sat 06:32:45 PM 36.6167 -76.6531 206° Southwest 373 429 38,000  Level Washington Center
Sat 06:33:46 PM 36.5244 -76.7033 204° Southwest 368 423 38,000  Level Washington Center
Sat 06:34:44 PM 36.4364 -76.7511 204° Southwest 363 418 38,000  Level Washington Center
Sat 06:35:44 PM 36.3439 -76.8014 204° Southwest 363 418 38,000  Level Washington Center
Sat 06:36:45 PM 36.2558 -76.8517 205° Southwest 363 418 38,000  Level Washington Center
Sat 06:37:46 PM 36.1656 -76.8989 203° Southwest 358 412 38,000  Level Washington Center
Sat 06:38:43 PM 36.0775 -76.9489 205° Southwest 358 412 38,000  Level Washington Center
Sat 06:39:45 PM 35.9892 -76.9961 203° Southwest 358 412 38,000  Level Washington Center
Sat 06:40:46 PM 35.8928 -77.0483 204° Southwest 353 406 38,000  Level Washington Center
Sat 06:41:44 PM 35.8108 -77.0956 205° Southwest 342 394 38,000  Level Washington Center
Sat 06:42:44 PM 35.7350 -77.1325 202° Southwest 335 386 38,000  Level Washington Center
Sat 06:43:45 PM 35.6531 -77.1794 205° Southwest 325 374 38,000  Level Washington Center
Sat 06:44:46 PM 35.5692 -77.2264 204° Southwest 325 374 38,000  Level Washington Center
Sat 06:45:46 PM 35.4892 -77.2706 204° Southwest 320 368 38,000  Level Washington Center
Sat 06:46:45 PM 35.4050 -77.3122 202° Southwest 320 368 38,000  Level Washington Center
Sat 06:47:44 PM 35.3208 -77.3586 204° Southwest 320 368 38,000  Level Washington Center
Sat 06:48:44 PM 35.2389 -77.4028 204° Southwest 325 374 38,000  Level Washington Center
Sat 06:49:45 PM 35.1547 -77.4492 204° Southwest 325 374 38,000  Level Washington Center
Sat 06:50:45 PM 35.0706 -77.4903 202° Southwest 325 374 38,000  Level Washington Center
Sat 06:51:46 PM 34.9886 -77.5367 205° Southwest 325 374 38,000  Level Washington Center
Sat 06:52:44 PM 34.9044 -77.5800 203° Southwest 325 374 38,000  Level Washington Center
Sat 06:53:45 PM 34.8117 -77.6361 206° Southwest 331 381 38,000  Level Washington Center
Sat 06:54:45 PM 34.7275 -77.6794 203° Southwest 331 381 38,000  Level Washington Center
Sat 06:55:46 PM 34.6431 -77.7228 203° Southwest 331 381 38,000  Level Washington Center
Sat 06:56:45 PM 34.5631 -77.7658 204° Southwest 331 381 38,000  Level Washington Center
Sat 06:57:46 PM 34.4789 -77.8092 203° Southwest 326 375 38,000  Level Washington Center
Sat 06:58:46 PM 34.3989 -77.8522 204° Southwest 326 375 38,000 51 Level Washington Center
Sat 06:59:44 PM 34.3147 -77.8903 200° South 320 368 38,100 555 Climbing Washington Center
Sat 07:00:45 PM 34.2308 -77.9081 190° South 331 381 39,100 659 Climbing Washington Center
Sat 07:02:37 PM 34.0447 -77.9606 193° South 371 427 40,000 314 Climbing Jacksonville Center
Sat 07:03:37 PM 33.9497 -77.9908 195° South 365 420 40,000  Level Jacksonville Center
Sat 07:04:37 PM 33.8528 -78.0164 192° South 365 420 40,000  Level Jacksonville Center
Sat 07:05:37 PM 33.7558 -78.0442 193° South 365 420 40,000  Level Jacksonville Center
Sat 07:06:37 PM 33.6569 -78.0772 196° South 365 420 40,000 -50 Level Jacksonville Center
Sat 07:07:37 PM 33.5619 -78.1022 192° South 365 420 39,900 -50 Descending Jacksonville Center
Sat 07:08:37 PM 33.4689 -78.1297 194° South 354 407 39,900 50 Level Jacksonville Center
Sat 07:09:37 PM 33.3803 -78.1542 193° South 343 395 40,000 50 Climbing Jacksonville Center
Sat 07:10:37 PM 33.2914 -78.1814 194° South 337 388 40,000  Level Jacksonville Center
Sat 07:11:37 PM 33.1986 -78.2061 193° South 337 388 40,000  Level Jacksonville Center
Sat 07:12:37 PM 33.1056 -78.2308 193° South 342 394 40,000  Level Jacksonville Center
Sat 07:13:37 PM 33.0125 -78.2581 194° South 342 394 40,000  Level Jacksonville Center
Sat 07:14:37 PM 32.9217 -78.2850 194° South 342 394 40,000  Level Jacksonville Center
Sat 07:15:37 PM 32.8286 -78.3069 191° South 342 394 40,000  Level Jacksonville Center
Sat 07:16:37 PM 32.7400 -78.3361 195° South 342 394 40,000  Level Jacksonville Center
Sat 07:17:37 PM 32.6469 -78.3606 192° South 342 394 40,000  Level Jacksonville Center
Sat 07:18:37 PM 32.5561 -78.3872 194° South 342 394 40,000  Level Jacksonville Center
Sat 07:19:37 PM 32.4631 -78.4117 192° South 342 394 40,000  Level Jacksonville Center
Sat 07:20:37 PM 32.3719 -78.4383 194° South 342 394 40,000  Level Jacksonville Center
Sat 07:21:37 PM 32.2894 -78.4644 195° South 342 394 40,000  Level Jacksonville Center
Sat 07:22:37 PM 32.1986 -78.4908 194° South 342 394 40,000  Level Jacksonville Center
Sat 07:23:37 PM 32.1036 -78.5200 195° South 342 394 40,000  Level Jacksonville Center
Sat 07:24:37 PM 32.0125 -78.5439 193° South 342 394 40,000  Level Jacksonville Center
Sat 07:25:37 PM 31.9153 -78.5706 193° South 347 399 40,000  Level Jacksonville Center
Sat 07:26:37 PM 31.8225 -78.5994 195° South 353 406 40,000  Level Jacksonville Center
Sat 07:27:37 PM 31.7294 -78.6281 195° South 353 406 40,000 -50 Level Jacksonville Center
Sat 07:28:37 PM 31.6364 -78.6519 192° South 353 406 39,900  Descending Jacksonville Center
Sat 07:29:37 PM 31.5414 -78.6831 196° South 353 406 40,000 50 Climbing Jacksonville Center
Sat 07:30:37 PM 31.4542 -78.6992 189° South 348 400 40,000  Level Jacksonville Center
Sat 07:31:37 PM 31.3572 -78.7350 198° South 354 407 40,000  Level Jacksonville Center
Sat 07:32:37 PM 31.2622 -78.7636 194° South 354 407 40,000  Level Jacksonville Center
Sat 07:33:37 PM 31.1689 -78.7872 192° South 354 407 40,000 -50 Level Jacksonville Center
Sat 07:34:37 PM 31.0781 -78.8128 194° South 354 407 39,900  Descending Jacksonville Center
Sat 07:35:37 PM 30.9828 -78.8364 192° South 354 407 40,000 50 Climbing Jacksonville Center
Sat 07:36:37 PM 30.8856 -78.8647 194° South 348 400 40,000  Level Jacksonville Center
Sat 07:37:37 PM 30.7986 -78.8903 194° South 348 400 40,000  Level Jacksonville Center
Sat 07:38:37 PM 30.6992 -78.9186 194° South 356 410 40,000  Level Jacksonville Center
Sat 07:40:23 PM 30.5294 -78.9647 193° South 351 404 40,000 -36 Level Miami Center
Sat 07:41:23 PM 30.4353 -78.9917 194° South 346 398 39,900  Descending Miami Center
Sat 07:42:23 PM 30.3450 -79.0308 201° Southwest 352 405 40,000 50 Climbing Miami Center
Sat 07:43:23 PM 30.2567 -79.0864 209° Southwest 345 397 40,000  Level Miami Center
Sat 07:44:23 PM 30.1786 -79.1472 214° Southwest 338 389 40,000 -300 Level Miami Center
Sat 07:45:23 PM 30.1006 -79.2078 214° Southwest 338 389 39,400 -750 Descending Miami Center
Sat 07:46:23 PM 30.0222 -79.2708 215° Southwest 343 395 38,500 -1,100 Descending Miami Center
Sat 07:47:23 PM 29.9608 -79.3294 220° Southwest 350 403 37,200 -1,250 Descending Miami Center
Sat 07:48:23 PM 29.8553 -79.4033 211° Southwest 366 421 36,000 -2,050 Descending Miami Center
Sat 07:49:23 PM 29.7664 -79.4706 213° Southwest 382 440 33,100 -2,550 Descending Miami Center
Sat 07:50:23 PM 29.6775 -79.5425 215° Southwest 393 452 30,900 -1,700 Descending Miami Center
Sat 07:51:23 PM 29.5822 -79.6189 215° Southwest 410 472 29,700 -1,100 Descending Miami Center
Sat 07:52:23 PM 29.4911 -79.6978 217° Southwest 415 478 28,700 -1,100 Descending Miami Center
Sat 07:53:23 PM 29.3917 -79.7689 212° Southwest 420 483 27,500 -1,150 Descending Miami Center
Sat 07:54:23 PM 29.2964 -79.8378 212° Southwest 420 483 26,400 -1,050 Descending Miami Center
Sat 07:55:23 PM 29.2028 -79.9136 215° Southwest 420 483 25,400 -1,550 Descending Miami Center
Sat 07:56:23 PM 29.1075 -79.9822 212° Southwest 420 483 23,300 -2,200 Descending Miami Center
Sat 07:57:23 PM 29.0225 -80.0533 216° Southwest 409 471 21,000 -2,400 Descending Miami Center
Sat 07:58:23 PM 28.9333 -80.1197 213° Southwest 395 455 18,500 -2,550 Descending Miami Center
Sat 07:59:23 PM 28.8892 -80.2272 245° Southwest 367 422 15,900 -1,588 Descending Miami Center
Sat 08:01:13 PM 28.8333 -80.4167 251° West 330 380 14,000 -847 Descending Orlando TRACON
Sat 08:02:13 PM 28.8000 -80.5000 245° Southwest 316 364 13,500 -992 Descending Orlando TRACON
Sat 08:03:14 PM 28.7500 -80.5833 236° Southwest 313 360 12,000 -1,300 Descending Orlando TRACON
Sat 08:04:13 PM 28.7167 -80.6667 245° Southwest 309 356 10,900 -1,000 Descending Orlando TRACON
Sat 08:05:08 PM 28.6667 -80.7500 236° Southwest 325 374 10,100 -470 Descending Orlando TRACON
Sat 08:06:08 PM 28.6167 -80.8333 236° Southwest 332 382 10,000 -150 Descending Orlando TRACON
Sat 08:07:08 PM 28.5667 -80.9167 236° Southwest 274 315 9,800 -750 Descending Orlando TRACON
Sat 08:08:08 PM 28.5167 -80.9833 230° Southwest 272 313 8,500 -1,450 Descending Orlando TRACON
Sat 08:09:08 PM 28.4667 -81.0500 230° Southwest 268 308 6,900 -1,450 Descending Orlando TRACON
Sat 08:10:08 PM 28.4333 -81.1167 240° Southwest 263 303 5,600 -1,200 Descending Orlando TRACON
Sat 08:11:08 PM 28.3833 -81.1833 230° Southwest 233 268 4,500 -1,190 Descending Orlando TRACON
Sat 08:12:14 PM 28.3333 -81.2167 210° Southwest 220 253 3,100 -1,238 Descending Orlando TRACON
Sat 08:13:14 PM 28.3333 -81.2833 270° West 199 229 1,900 -1,150 Descending Orlando TRACON
Sat 08:14:14 PM 28.3833 -81.3000 344° North 147 169 800 -1,100 Descending Orlando TRACON

Login

Don't have an account? Register now (free) for customized features, flight alerts, and more!